sensor_id;sensor_type;location;lat;lon;timestamp;temperature;humidity
29237;DHT22;16266;50.866;4.398;2023-03-01T00:01:59;0.70;99.90
29237;DHT22;16266;50.866;4.398;2023-03-01T00:04:25;0.50;99.90
29237;DHT22;16266;50.866;4.398;2023-03-01T00:06:50;0.50;99.90
29237;DHT22;16266;50.866;4.398;2023-03-01T00:09:16;0.60;99.90
29237;DHT22;16266;50.866;4.398;2023-03-01T00:11:42;0.40;99.90
29237;DHT22;16266;50.866;4.398;2023-03-01T00:14:08;0.50;99.90
29237;DHT22;16266;50.866;4.398;2023-03-01T00:16:36;0.40;99.90
29237;DHT22;16266;50.866;4.398;2023-03-01T00:19:04;0.50;99.90
29237;DHT22;16266;50.866;4.398;2023-03-01T00:21:30;0.40;99.90
29237;DHT22;16266;50.866;4.398;2023-03-01T00:23:56;0.50;99.90
29237;DHT22;16266;50.866;4.398;2023-03-01T00:26:24;0.40;99.90
29237;DHT22;16266;50.866;4.398;2023-03-01T00:28:50;0.30;99.90
29237;DHT22;16266;50.866;4.398;2023-03-01T00:31:18;0.30;99.90
29237;DHT22;16266;50.866;4.398;2023-03-01T00:33:45;0.30;99.90
29237;DHT22;16266;50.866;4.398;2023-03-01T00:36:12;0.40;99.90
29237;DHT22;16266;50.866;4.398;2023-03-01T00:38:40;0.40;99.90
29237;DHT22;16266;50.866;4.398;2023-03-01T00:41:08;0.40;99.90
29237;DHT22;16266;50.866;4.398;2023-03-01T00:43:34;0.30;99.90
29237;DHT22;16266;50.866;4.398;2023-03-01T00:46:07;0.40;99.90
29237;DHT22;16266;50.866;4.398;2023-03-01T00:48:33;0.40;99.90
29237;DHT22;16266;50.866;4.398;2023-03-01T00:51:14;0.40;99.90
29237;DHT22;16266;50.866;4.398;2023-03-01T00:53:40;0.20;99.90
29237;DHT22;16266;50.866;4.398;2023-03-01T00:56:08;0.30;99.90
29237;DHT22;16266;50.866;4.398;2023-03-01T00:58:34;0.30;99.90
29237;DHT22;16266;50.866;4.398;2023-03-01T01:01:00;0.30;99.90
29237;DHT22;16266;50.866;4.398;2023-03-01T01:03:26;0.30;99.90
29237;DHT22;16266;50.866;4.398;2023-03-01T01:05:52;0.20;99.90
29237;DHT22;16266;50.866;4.398;2023-03-01T01:08:19;0.20;99.90
29237;DHT22;16266;50.866;4.398;2023-03-01T01:10:46;0.20;99.90
29237;DHT22;16266;50.866;4.398;2023-03-01T01:13:12;0.10;99.90
29237;DHT22;16266;50.866;4.398;2023-03-01T01:15:38;0.10;99.90
29237;DHT22;16266;50.866;4.398;2023-03-01T01:18:03;0.20;99.90
29237;DHT22;16266;50.866;4.398;2023-03-01T01:20:29;0.10;99.90
29237;DHT22;16266;50.866;4.398;2023-03-01T01:22:55;0.10;99.90
29237;DHT22;16266;50.866;4.398;2023-03-01T01:25:21;0.20;99.90
29237;DHT22;16266;50.866;4.398;2023-03-01T01:27:46;0.10;99.90
29237;DHT22;16266;50.866;4.398;2023-03-01T01:30:12;0.00;99.90
29237;DHT22;16266;50.866;4.398;2023-03-01T01:32:38;0.10;99.90
29237;DHT22;16266;50.866;4.398;2023-03-01T01:35:04;0.10;99.90
29237;DHT22;16266;50.866;4.398;2023-03-01T01:37:30;0.00;99.90
29237;DHT22;16266;50.866;4.398;2023-03-01T01:39:59;0.00;99.90
29237;DHT22;16266;50.866;4.398;2023-03-01T01:42:26;-0.10;99.90
29237;DHT22;16266;50.866;4.398;2023-03-01T01:45:44;-0.10;99.90
29237;DHT22;16266;50.866;4.398;2023-03-01T01:48:15;-0.10;99.90
29237;DHT22;16266;50.866;4.398;2023-03-01T01:50:42;-0.20;99.90
29237;DHT22;16266;50.866;4.398;2023-03-01T01:53:13;-0.10;99.90
29237;DHT22;16266;50.866;4.398;2023-03-01T01:55:43;-0.20;99.90
29237;DHT22;16266;50.866;4.398;2023-03-01T01:58:14;-0.10;99.90
29237;DHT22;16266;50.866;4.398;2023-03-01T02:00:41;-0.10;99.90
29237;DHT22;16266;50.866;4.398;2023-03-01T02:03:13;-0.10;99.90
29237;DHT22;16266;50.866;4.398;2023-03-01T02:08:20;-0.10;99.90
29237;DHT22;16266;50.866;4.398;2023-03-01T02:10:48;-0.10;99.90
29237;DHT22;16266;50.866;4.398;2023-03-01T02:13:14;-0.20;99.90
29237;DHT22;16266;50.866;4.398;2023-03-01T02:15:41;-0.10;99.90
29237;DHT22;16266;50.866;4.398;2023-03-01T02:18:10;-0.10;99.90
29237;DHT22;16266;50.866;4.398;2023-03-01T02:23:17;-0.30;99.90
29237;DHT22;16266;50.866;4.398;2023-03-01T02:25:57;-0.30;99.90
29237;DHT22;16266;50.866;4.398;2023-03-01T02:28:34;-0.30;99.90
29237;DHT22;16266;50.866;4.398;2023-03-01T02:31:01;-0.40;99.90
29237;DHT22;16266;50.866;4.398;2023-03-01T02:33:47;-0.40;99.90
29237;DHT22;16266;50.866;4.398;2023-03-01T02:36:23;-0.40;99.90
29237;DHT22;16266;50.866;4.398;2023-03-01T02:38:52;-0.40;99.90
29237;DHT22;16266;50.866;4.398;2023-03-01T02:41:20;-0.40;99.90
29237;DHT22;16266;50.866;4.398;2023-03-01T02:43:46;-0.50;99.90
29237;DHT22;16266;50.866;4.398;2023-03-01T02:46:21;-0.50;99.90
29237;DHT22;16266;50.866;4.398;2023-03-01T02:48:56;-0.50;99.90
29237;DHT22;16266;50.866;4.398;2023-03-01T02:54:06;-0.50;99.90
29237;DHT22;16266;50.866;4.398;2023-03-01T02:56:34;-0.50;99.90
29237;DHT22;16266;50.866;4.398;2023-03-01T02:59:00;-0.50;99.90
29237;DHT22;16266;50.866;4.398;2023-03-01T03:01:27;-0.50;99.90
29237;DHT22;16266;50.866;4.398;2023-03-01T03:04:14;-0.50;99.90
29237;DHT22;16266;50.866;4.398;2023-03-01T03:06:43;-0.50;99.90
29237;DHT22;16266;50.866;4.398;2023-03-01T03:09:10;-0.50;99.90
29237;DHT22;16266;50.866;4.398;2023-03-01T03:11:36;-0.60;99.90
29237;DHT22;16266;50.866;4.398;2023-03-01T03:14:02;-0.60;99.90
29237;DHT22;16266;50.866;4.398;2023-03-01T03:16:28;-0.70;99.90
29237;DHT22;16266;50.866;4.398;2023-03-01T03:18:55;-0.70;99.90
29237;DHT22;16266;50.866;4.398;2023-03-01T03:21:32;-0.70;99.90
29237;DHT22;16266;50.866;4.398;2023-03-01T03:23:58;-0.60;99.90
29237;DHT22;16266;50.866;4.398;2023-03-01T03:26:24;-0.60;99.90
29237;DHT22;16266;50.866;4.398;2023-03-01T03:28:50;-0.60;99.90
29237;DHT22;16266;50.866;4.398;2023-03-01T03:31:16;-0.60;99.90
29237;DHT22;16266;50.866;4.398;2023-03-01T03:33:42;-0.70;99.90
29237;DHT22;16266;50.866;4.398;2023-03-01T03:36:08;-0.70;99.90
29237;DHT22;16266;50.866;4.398;2023-03-01T03:38:39;-0.80;99.90
29237;DHT22;16266;50.866;4.398;2023-03-01T03:41:07;-0.80;99.90
29237;DHT22;16266;50.866;4.398;2023-03-01T03:43:35;-0.80;99.90
29237;DHT22;16266;50.866;4.398;2023-03-01T03:46:02;-0.80;99.90
29237;DHT22;16266;50.866;4.398;2023-03-01T03:48:34;-0.80;99.90
29237;DHT22;16266;50.866;4.398;2023-03-01T03:51:01;-0.90;99.90
29237;DHT22;16266;50.866;4.398;2023-03-01T03:53:28;-0.90;99.90
29237;DHT22;16266;50.866;4.398;2023-03-01T03:55:54;-0.90;99.90
29237;DHT22;16266;50.866;4.398;2023-03-01T03:58:22;-0.90;99.90
29237;DHT22;16266;50.866;4.398;2023-03-01T04:00:50;-0.90;99.90
29237;DHT22;16266;50.866;4.398;2023-03-01T04:03:18;-0.90;99.90
29237;DHT22;16266;50.866;4.398;2023-03-01T04:05:45;-0.90;99.90
29237;DHT22;16266;50.866;4.398;2023-03-01T04:08:11;-1.00;99.90
29237;DHT22;16266;50.866;4.398;2023-03-01T04:10:43;-1.10;99.90
29237;DHT22;16266;50.866;4.398;2023-03-01T04:13:14;-1.10;99.90
29237;DHT22;16266;50.866;4.398;2023-03-01T04:15:41;-1.00;99.90
29237;DHT22;16266;50.866;4.398;2023-03-01T04:18:10;-1.10;99.90
29237;DHT22;16266;50.866;4.398;2023-03-01T04:20:37;-1.10;99.90
29237;DHT22;16266;50.866;4.398;2023-03-01T04:23:04;-1.20;99.90
29237;DHT22;16266;50.866;4.398;2023-03-01T04:25:44;-1.20;99.90
29237;DHT22;16266;50.866;4.398;2023-03-01T04:28:11;-1.20;99.90
29237;DHT22;16266;50.866;4.398;2023-03-01T04:30:38;-1.20;99.90
29237;DHT22;16266;50.866;4.398;2023-03-01T04:33:05;-1.20;99.90
29237;DHT22;16266;50.866;4.398;2023-03-01T04:35:32;-1.20;99.90
29237;DHT22;16266;50.866;4.398;2023-03-01T04:37:58;-1.30;99.90
29237;DHT22;16266;50.866;4.398;2023-03-01T04:40:24;-1.20;99.90
29237;DHT22;16266;50.866;4.398;2023-03-01T04:42:50;-1.30;99.90
29237;DHT22;16266;50.866;4.398;2023-03-01T04:45:16;-1.40;99.90
29237;DHT22;16266;50.866;4.398;2023-03-01T04:47:43;-1.40;99.90
29237;DHT22;16266;50.866;4.398;2023-03-01T04:50:16;-1.30;99.90
29237;DHT22;16266;50.866;4.398;2023-03-01T04:52:43;-1.20;99.90
29237;DHT22;16266;50.866;4.398;2023-03-01T04:55:09;-1.30;99.90
29237;DHT22;16266;50.866;4.398;2023-03-01T04:57:35;-1.40;99.90
29237;DHT22;16266;50.866;4.398;2023-03-01T05:00:02;-1.40;99.90
29237;DHT22;16266;50.866;4.398;2023-03-01T05:02:55;-1.40;99.90
29237;DHT22;16266;50.866;4.398;2023-03-01T05:07:51;-1.50;99.90
29237;DHT22;16266;50.866;4.398;2023-03-01T05:10:17;-1.40;99.90
29237;DHT22;16266;50.866;4.398;2023-03-01T05:12:42;-1.50;99.90
29237;DHT22;16266;50.866;4.398;2023-03-01T05:15:08;-1.50;99.90
29237;DHT22;16266;50.866;4.398;2023-03-01T05:17:34;-1.50;99.90
29237;DHT22;16266;50.866;4.398;2023-03-01T05:20:00;-1.50;99.90
29237;DHT22;16266;50.866;4.398;2023-03-01T05:22:26;-1.60;99.90
29237;DHT22;16266;50.866;4.398;2023-03-01T05:24:52;-1.50;99.90
29237;DHT22;16266;50.866;4.398;2023-03-01T05:27:19;-1.50;99.90
29237;DHT22;16266;50.866;4.398;2023-03-01T05:29:47;-1.60;99.90
29237;DHT22;16266;50.866;4.398;2023-03-01T05:32:13;-1.60;99.90
29237;DHT22;16266;50.866;4.398;2023-03-01T05:34:41;-1.50;99.90
29237;DHT22;16266;50.866;4.398;2023-03-01T05:37:07;-1.60;99.90
29237;DHT22;16266;50.866;4.398;2023-03-01T05:39:34;-1.50;99.90
29237;DHT22;16266;50.866;4.398;2023-03-01T05:42:00;-1.60;99.90
29237;DHT22;16266;50.866;4.398;2023-03-01T05:44:29;-1.60;99.90
29237;DHT22;16266;50.866;4.398;2023-03-01T05:46:55;-1.60;99.90
29237;DHT22;16266;50.866;4.398;2023-03-01T05:49:22;-1.50;99.90
29237;DHT22;16266;50.866;4.398;2023-03-01T05:51:52;-1.50;99.90
29237;DHT22;16266;50.866;4.398;2023-03-01T05:54:19;-1.60;99.90
29237;DHT22;16266;50.866;4.398;2023-03-01T05:56:45;-1.60;99.90
29237;DHT22;16266;50.866;4.398;2023-03-01T05:59:11;-1.50;99.90
29237;DHT22;16266;50.866;4.398;2023-03-01T06:01:37;-1.60;99.90
29237;DHT22;16266;50.866;4.398;2023-03-01T06:04:03;-1.60;99.90
29237;DHT22;16266;50.866;4.398;2023-03-01T06:06:30;-1.60;99.90
29237;DHT22;16266;50.866;4.398;2023-03-01T06:08:58;-1.60;99.90
29237;DHT22;16266;50.866;4.398;2023-03-01T06:11:24;-1.80;99.90
29237;DHT22;16266;50.866;4.398;2023-03-01T06:13:50;-1.70;99.90
29237;DHT22;16266;50.866;4.398;2023-03-01T06:16:16;-1.70;99.90
29237;DHT22;16266;50.866;4.398;2023-03-01T06:18:42;-1.70;99.90
29237;DHT22;16266;50.866;4.398;2023-03-01T06:21:08;-1.70;99.90
29237;DHT22;16266;50.866;4.398;2023-03-01T06:23:34;-1.70;99.90
29237;DHT22;16266;50.866;4.398;2023-03-01T06:26:04;-1.60;99.90
29237;DHT22;16266;50.866;4.398;2023-03-01T06:28:30;-1.70;99.90
29237;DHT22;16266;50.866;4.398;2023-03-01T06:30:55;-1.70;99.90
29237;DHT22;16266;50.866;4.398;2023-03-01T06:33:21;-1.60;99.90
29237;DHT22;16266;50.866;4.398;2023-03-01T06:35:49;-1.60;99.90
29237;DHT22;16266;50.866;4.398;2023-03-01T06:38:15;-1.60;99.90
29237;DHT22;16266;50.866;4.398;2023-03-01T06:40:43;-1.60;99.90
29237;DHT22;16266;50.866;4.398;2023-03-01T06:43:09;-1.50;99.90
29237;DHT22;16266;50.866;4.398;2023-03-01T06:45:35;-1.50;99.90
29237;DHT22;16266;50.866;4.398;2023-03-01T06:48:04;-1.50;99.90
29237;DHT22;16266;50.866;4.398;2023-03-01T06:50:30;-1.50;99.90
29237;DHT22;16266;50.866;4.398;2023-03-01T06:52:56;-1.50;99.90
29237;DHT22;16266;50.866;4.398;2023-03-01T06:55:22;-1.50;99.90
29237;DHT22;16266;50.866;4.398;2023-03-01T06:57:48;-1.30;99.90
29237;DHT22;16266;50.866;4.398;2023-03-01T07:00:14;-1.30;99.90
29237;DHT22;16266;50.866;4.398;2023-03-01T07:02:40;-1.30;99.90
29237;DHT22;16266;50.866;4.398;2023-03-01T07:05:06;-1.10;99.90
29237;DHT22;16266;50.866;4.398;2023-03-01T07:07:32;-0.60;99.90
29237;DHT22;16266;50.866;4.398;2023-03-01T07:09:57;0.10;99.90
29237;DHT22;16266;50.866;4.398;2023-03-01T07:12:23;0.80;99.90
29237;DHT22;16266;50.866;4.398;2023-03-01T07:14:49;1.50;99.90
29237;DHT22;16266;50.866;4.398;2023-03-01T07:17:14;2.00;99.90
29237;DHT22;16266;50.866;4.398;2023-03-01T07:19:40;2.40;99.90
29237;DHT22;16266;50.866;4.398;2023-03-01T07:22:05;2.60;99.90
29237;DHT22;16266;50.866;4.398;2023-03-01T07:24:33;3.00;99.90
29237;DHT22;16266;50.866;4.398;2023-03-01T07:26:59;3.50;99.90
29237;DHT22;16266;50.866;4.398;2023-03-01T07:29:24;3.90;99.90
29237;DHT22;16266;50.866;4.398;2023-03-01T07:31:50;4.40;99.90
29237;DHT22;16266;50.866;4.398;2023-03-01T07:34:16;4.80;99.90
29237;DHT22;16266;50.866;4.398;2023-03-01T07:36:41;4.90;99.90
29237;DHT22;16266;50.866;4.398;2023-03-01T07:39:10;5.30;99.90
29237;DHT22;16266;50.866;4.398;2023-03-01T07:41:35;5.70;99.90
29237;DHT22;16266;50.866;4.398;2023-03-01T07:44:01;6.20;99.90
29237;DHT22;16266;50.866;4.398;2023-03-01T07:46:27;6.20;99.90
29237;DHT22;16266;50.866;4.398;2023-03-01T07:48:53;6.50;99.90
29237;DHT22;16266;50.866;4.398;2023-03-01T07:51:18;6.90;99.90
29237;DHT22;16266;50.866;4.398;2023-03-01T07:53:46;7.20;99.90
29237;DHT22;16266;50.866;4.398;2023-03-01T07:56:14;7.20;99.90
29237;DHT22;16266;50.866;4.398;2023-03-01T07:58:42;7.50;99.90
29237;DHT22;16266;50.866;4.398;2023-03-01T08:01:11;7.60;99.90
29237;DHT22;16266;50.866;4.398;2023-03-01T08:03:37;7.70;99.90
29237;DHT22;16266;50.866;4.398;2023-03-01T08:06:05;7.70;99.90
29237;DHT22;16266;50.866;4.398;2023-03-01T08:08:32;7.50;99.90
29237;DHT22;16266;50.866;4.398;2023-03-01T08:11:01;7.40;99.90
29237;DHT22;16266;50.866;4.398;2023-03-01T08:13:28;8.10;99.90
29237;DHT22;16266;50.866;4.398;2023-03-01T08:15:54;8.70;99.90
29237;DHT22;16266;50.866;4.398;2023-03-01T08:18:20;9.00;96.50
29237;DHT22;16266;50.866;4.398;2023-03-01T08:20:46;9.30;96.40
29237;DHT22;16266;50.866;4.398;2023-03-01T08:23:12;9.00;94.50
29237;DHT22;16266;50.866;4.398;2023-03-01T08:25:38;8.80;94.30
29237;DHT22;16266;50.866;4.398;2023-03-01T08:28:04;8.90;95.20
29237;DHT22;16266;50.866;4.398;2023-03-01T08:30:30;8.60;95.20
29237;DHT22;16266;50.866;4.398;2023-03-01T08:32:56;8.70;94.40
29237;DHT22;16266;50.866;4.398;2023-03-01T08:35:22;8.60;94.80
29237;DHT22;16266;50.866;4.398;2023-03-01T08:37:48;9.10;94.60
29237;DHT22;16266;50.866;4.398;2023-03-01T08:40:14;9.10;92.90
29237;DHT22;16266;50.866;4.398;2023-03-01T08:42:41;9.50;92.40
29237;DHT22;16266;50.866;4.398;2023-03-01T08:45:09;10.20;91.00
29237;DHT22;16266;50.866;4.398;2023-03-01T08:47:35;11.00;88.20
29237;DHT22;16266;50.866;4.398;2023-03-01T08:50:01;11.20;83.90
29237;DHT22;16266;50.866;4.398;2023-03-01T08:52:27;10.70;77.90
29237;DHT22;16266;50.866;4.398;2023-03-01T08:54:53;10.70;81.60
29237;DHT22;16266;50.866;4.398;2023-03-01T08:57:19;10.20;80.80
29237;DHT22;16266;50.866;4.398;2023-03-01T08:59:44;10.30;83.30
29237;DHT22;16266;50.866;4.398;2023-03-01T09:02:15;10.70;82.70
29237;DHT22;16266;50.866;4.398;2023-03-01T09:04:41;10.50;80.10
29237;DHT22;16266;50.866;4.398;2023-03-01T09:07:07;11.20;77.70
29237;DHT22;16266;50.866;4.398;2023-03-01T09:09:33;11.50;80.10
29237;DHT22;16266;50.866;4.398;2023-03-01T09:11:59;11.30;72.50
29237;DHT22;16266;50.866;4.398;2023-03-01T09:14:25;11.40;72.80
29237;DHT22;16266;50.866;4.398;2023-03-01T09:16:50;11.20;72.50
29237;DHT22;16266;50.866;4.398;2023-03-01T09:19:16;10.80;73.30
29237;DHT22;16266;50.866;4.398;2023-03-01T09:21:42;11.10;73.30
29237;DHT22;16266;50.866;4.398;2023-03-01T09:24:19;11.30;73.40
29237;DHT22;16266;50.866;4.398;2023-03-01T09:26:44;11.40;72.00
29237;DHT22;16266;50.866;4.398;2023-03-01T09:29:13;11.90;69.40
29237;DHT22;16266;50.866;4.398;2023-03-01T09:31:40;12.00;65.50
29237;DHT22;16266;50.866;4.398;2023-03-01T09:34:06;11.30;65.20
29237;DHT22;16266;50.866;4.398;2023-03-01T09:36:33;11.20;67.50
29237;DHT22;16266;50.866;4.398;2023-03-01T09:38:59;10.80;68.60
29237;DHT22;16266;50.866;4.398;2023-03-01T09:41:43;10.90;69.80
29237;DHT22;16266;50.866;4.398;2023-03-01T09:44:20;11.30;67.10
29237;DHT22;16266;50.866;4.398;2023-03-01T09:46:46;11.80;66.90
29237;DHT22;16266;50.866;4.398;2023-03-01T09:49:21;12.00;62.60
29237;DHT22;16266;50.866;4.398;2023-03-01T09:51:58;12.30;62.00
29237;DHT22;16266;50.866;4.398;2023-03-01T09:54:24;12.00;60.50
29237;DHT22;16266;50.866;4.398;2023-03-01T10:02:42;11.20;64.20
29237;DHT22;16266;50.866;4.398;2023-03-01T10:05:34;11.00;64.60
29237;DHT22;16266;50.866;4.398;2023-03-01T10:10:38;10.70;63.70
29237;DHT22;16266;50.866;4.398;2023-03-01T10:13:24;9.80;67.20
29237;DHT22;16266;50.866;4.398;2023-03-01T10:15:55;9.20;70.30
29237;DHT22;16266;50.866;4.398;2023-03-01T10:18:26;9.30;74.00
29237;DHT22;16266;50.866;4.398;2023-03-01T10:23:18;10.30;69.10
29237;DHT22;16266;50.866;4.398;2023-03-01T10:26:16;10.40;66.50
29237;DHT22;16266;50.866;4.398;2023-03-01T10:29:08;10.40;67.70
29237;DHT22;16266;50.866;4.398;2023-03-01T10:31:51;11.30;63.60
29237;DHT22;16266;50.866;4.398;2023-03-01T10:34:26;11.70;64.60
29237;DHT22;16266;50.866;4.398;2023-03-01T10:37:28;12.20;61.80
29237;DHT22;16266;50.866;4.398;2023-03-01T10:42:30;12.90;53.90
29237;DHT22;16266;50.866;4.398;2023-03-01T10:44:57;13.20;51.30
29237;DHT22;16266;50.866;4.398;2023-03-01T10:47:25;12.70;50.50
29237;DHT22;16266;50.866;4.398;2023-03-01T10:50:03;12.00;54.20
29237;DHT22;16266;50.866;4.398;2023-03-01T10:52:33;13.00;53.60
29237;DHT22;16266;50.866;4.398;2023-03-01T10:55:19;13.90;49.20
29237;DHT22;16266;50.866;4.398;2023-03-01T10:57:46;12.70;49.20
29237;DHT22;16266;50.866;4.398;2023-03-01T11:00:25;13.90;51.10
29237;DHT22;16266;50.866;4.398;2023-03-01T11:05:24;13.70;48.00
29237;DHT22;16266;50.866;4.398;2023-03-01T11:10:19;14.80;44.40
29237;DHT22;16266;50.866;4.398;2023-03-01T11:12:45;14.30;42.10
29237;DHT22;16266;50.866;4.398;2023-03-01T11:15:37;14.80;42.40
29237;DHT22;16266;50.866;4.398;2023-03-01T11:18:03;14.60;39.30
29237;DHT22;16266;50.866;4.398;2023-03-01T11:20:37;14.20;38.80
29237;DHT22;16266;50.866;4.398;2023-03-01T11:23:14;12.90;42.90
29237;DHT22;16266;50.866;4.398;2023-03-01T11:25:43;13.20;43.10
29237;DHT22;16266;50.866;4.398;2023-03-01T11:28:16;13.60;40.70
29237;DHT22;16266;50.866;4.398;2023-03-01T11:30:59;12.40;41.70
29237;DHT22;16266;50.866;4.398;2023-03-01T11:39:26;13.00;40.40
29237;DHT22;16266;50.866;4.398;2023-03-01T11:42:02;12.80;41.60
29237;DHT22;16266;50.866;4.398;2023-03-01T11:44:33;13.30;41.30
29237;DHT22;16266;50.866;4.398;2023-03-01T11:50:23;13.40;39.20
29237;DHT22;16266;50.866;4.398;2023-03-01T11:58:38;12.50;40.50
29237;DHT22;16266;50.866;4.398;2023-03-01T12:07:01;12.30;39.90
29237;DHT22;16266;50.866;4.398;2023-03-01T12:12:32;12.40;40.00
29237;DHT22;16266;50.866;4.398;2023-03-01T12:17:56;11.90;37.50
29237;DHT22;16266;50.866;4.398;2023-03-01T12:23:59;11.80;40.80
29237;DHT22;16266;50.866;4.398;2023-03-01T12:26:46;11.90;42.20
29237;DHT22;16266;50.866;4.398;2023-03-01T12:32:09;11.80;42.10
29237;DHT22;16266;50.866;4.398;2023-03-01T12:35:00;11.80;41.50
29237;DHT22;16266;50.866;4.398;2023-03-01T12:50:59;12.20;41.40
29237;DHT22;16266;50.866;4.398;2023-03-01T12:53:29;12.00;40.90
29237;DHT22;16266;50.866;4.398;2023-03-01T12:56:05;12.00;41.50
29237;DHT22;16266;50.866;4.398;2023-03-01T13:01:35;11.50;41.90
29237;DHT22;16266;50.866;4.398;2023-03-01T13:04:18;11.20;42.30
29237;DHT22;16266;50.866;4.398;2023-03-01T13:28:55;8.40;55.80
29237;DHT22;16266;50.866;4.398;2023-03-01T13:33:52;8.20;54.60
29237;DHT22;16266;50.866;4.398;2023-03-01T13:44:18;7.50;62.50
29237;DHT22;16266;50.866;4.398;2023-03-01T13:46:46;7.50;64.90
29237;DHT22;16266;50.866;4.398;2023-03-01T13:49:16;7.50;66.10
29237;DHT22;16266;50.866;4.398;2023-03-01T13:51:46;7.40;66.80
29237;DHT22;16266;50.866;4.398;2023-03-01T13:54:14;7.30;67.50
29237;DHT22;16266;50.866;4.398;2023-03-01T13:56:40;7.20;70.30
29237;DHT22;16266;50.866;4.398;2023-03-01T13:59:17;7.30;73.40
29237;DHT22;16266;50.866;4.398;2023-03-01T14:01:43;7.50;73.80
29237;DHT22;16266;50.866;4.398;2023-03-01T14:04:32;7.60;71.40
29237;DHT22;16266;50.866;4.398;2023-03-01T14:07:22;7.70;64.80
29237;DHT22;16266;50.866;4.398;2023-03-01T14:10:11;7.70;65.90
29237;DHT22;16266;50.866;4.398;2023-03-01T14:13:06;7.60;67.70
29237;DHT22;16266;50.866;4.398;2023-03-01T14:21:12;7.40;67.00
29237;DHT22;16266;50.866;4.398;2023-03-01T14:23:40;7.40;69.20
29237;DHT22;16266;50.866;4.398;2023-03-01T14:26:08;7.30;69.90
29237;DHT22;16266;50.866;4.398;2023-03-01T14:28:36;7.20;70.40
29237;DHT22;16266;50.866;4.398;2023-03-01T14:33:55;7.10;76.60
29237;DHT22;16266;50.866;4.398;2023-03-01T14:36:27;7.10;77.60
29237;DHT22;16266;50.866;4.398;2023-03-01T14:38:52;7.20;78.60
29237;DHT22;16266;50.866;4.398;2023-03-01T14:41:22;7.20;75.40
29237;DHT22;16266;50.866;4.398;2023-03-01T14:43:55;7.20;76.60
29237;DHT22;16266;50.866;4.398;2023-03-01T14:46:30;7.20;78.60
29237;DHT22;16266;50.866;4.398;2023-03-01T14:49:03;7.20;79.60
29237;DHT22;16266;50.866;4.398;2023-03-01T14:51:30;7.20;80.30
29237;DHT22;16266;50.866;4.398;2023-03-01T14:53:56;7.30;80.40
29237;DHT22;16266;50.866;4.398;2023-03-01T14:56:22;7.30;78.90
29237;DHT22;16266;50.866;4.398;2023-03-01T14:58:51;7.20;77.80
29237;DHT22;16266;50.866;4.398;2023-03-01T15:01:18;7.10;78.40
29237;DHT22;16266;50.866;4.398;2023-03-01T15:03:46;7.20;78.20
29237;DHT22;16266;50.866;4.398;2023-03-01T15:06:19;7.20;78.10
29237;DHT22;16266;50.866;4.398;2023-03-01T15:08:48;7.20;80.20
29237;DHT22;16266;50.866;4.398;2023-03-01T15:11:31;7.20;78.00
29237;DHT22;16266;50.866;4.398;2023-03-01T15:13:58;7.20;76.90
29237;DHT22;16266;50.866;4.398;2023-03-01T15:16:30;7.10;77.90
29237;DHT22;16266;50.866;4.398;2023-03-01T15:19:00;7.10;78.80
29237;DHT22;16266;50.866;4.398;2023-03-01T15:21:30;7.10;79.50
29237;DHT22;16266;50.866;4.398;2023-03-01T15:26:37;7.10;80.60
29237;DHT22;16266;50.866;4.398;2023-03-01T15:29:04;7.10;81.20
29237;DHT22;16266;50.866;4.398;2023-03-01T15:31:42;7.00;83.20
29237;DHT22;16266;50.866;4.398;2023-03-01T15:36:45;7.10;84.20
29237;DHT22;16266;50.866;4.398;2023-03-01T15:41:58;6.90;86.20
29237;DHT22;16266;50.866;4.398;2023-03-01T15:44:30;6.90;87.00
29237;DHT22;16266;50.866;4.398;2023-03-01T15:46:56;6.90;87.70
29237;DHT22;16266;50.866;4.398;2023-03-01T15:51:59;6.80;85.20
29237;DHT22;16266;50.866;4.398;2023-03-01T15:54:26;6.80;86.10
29237;DHT22;16266;50.866;4.398;2023-03-01T15:56:52;6.80;87.00
29237;DHT22;16266;50.866;4.398;2023-03-01T15:59:18;6.80;86.20
29237;DHT22;16266;50.866;4.398;2023-03-01T16:01:44;6.80;85.50
29237;DHT22;16266;50.866;4.398;2023-03-01T16:04:11;6.70;86.20
29237;DHT22;16266;50.866;4.398;2023-03-01T16:06:50;6.70;86.40
29237;DHT22;16266;50.866;4.398;2023-03-01T16:09:20;6.70;87.00
29237;DHT22;16266;50.866;4.398;2023-03-01T16:11:46;6.70;87.70
29237;DHT22;16266;50.866;4.398;2023-03-01T16:14:11;6.70;87.80
29237;DHT22;16266;50.866;4.398;2023-03-01T16:16:37;6.70;88.90
29237;DHT22;16266;50.866;4.398;2023-03-01T16:19:03;6.60;90.20
29237;DHT22;16266;50.866;4.398;2023-03-01T16:21:29;6.60;90.60
29237;DHT22;16266;50.866;4.398;2023-03-01T16:23:59;6.50;91.50
29237;DHT22;16266;50.866;4.398;2023-03-01T16:26:24;6.50;92.00
29237;DHT22;16266;50.866;4.398;2023-03-01T16:28:50;6.50;92.30
29237;DHT22;16266;50.866;4.398;2023-03-01T16:31:19;6.40;92.50
29237;DHT22;16266;50.866;4.398;2023-03-01T16:33:45;6.40;93.30
29237;DHT22;16266;50.866;4.398;2023-03-01T16:36:18;6.40;93.60
29237;DHT22;16266;50.866;4.398;2023-03-01T16:38:44;6.40;93.70
29237;DHT22;16266;50.866;4.398;2023-03-01T16:41:14;6.30;94.00
29237;DHT22;16266;50.866;4.398;2023-03-01T16:43:39;6.30;94.90
29237;DHT22;16266;50.866;4.398;2023-03-01T16:46:23;6.20;95.20
29237;DHT22;16266;50.866;4.398;2023-03-01T16:48:50;6.20;95.40
29237;DHT22;16266;50.866;4.398;2023-03-01T16:51:16;6.20;95.80
29237;DHT22;16266;50.866;4.398;2023-03-01T16:53:42;6.10;96.30
29237;DHT22;16266;50.866;4.398;2023-03-01T16:56:09;6.10;96.70
29237;DHT22;16266;50.866;4.398;2023-03-01T16:58:39;6.00;97.00
29237;DHT22;16266;50.866;4.398;2023-03-01T17:01:13;6.00;97.60
29237;DHT22;16266;50.866;4.398;2023-03-01T17:03:40;5.80;98.80
29237;DHT22;16266;50.866;4.398;2023-03-01T17:06:08;5.80;99.30
29237;DHT22;16266;50.866;4.398;2023-03-01T17:08:36;5.80;99.60
29237;DHT22;16266;50.866;4.398;2023-03-01T17:11:07;5.70;99.90
29237;DHT22;16266;50.866;4.398;2023-03-01T17:13:34;5.70;99.90
29237;DHT22;16266;50.866;4.398;2023-03-01T17:16:01;5.70;99.90
29237;DHT22;16266;50.866;4.398;2023-03-01T17:18:27;5.60;99.90
29237;DHT22;16266;50.866;4.398;2023-03-01T17:20:53;5.50;99.90
29237;DHT22;16266;50.866;4.398;2023-03-01T17:23:19;5.50;99.90
29237;DHT22;16266;50.866;4.398;2023-03-01T17:25:44;5.40;99.90
29237;DHT22;16266;50.866;4.398;2023-03-01T17:28:12;5.40;99.90
29237;DHT22;16266;50.866;4.398;2023-03-01T17:30:41;5.30;99.90
29237;DHT22;16266;50.866;4.398;2023-03-01T17:33:06;5.40;99.90
29237;DHT22;16266;50.866;4.398;2023-03-01T17:35:32;5.30;99.90
29237;DHT22;16266;50.866;4.398;2023-03-01T17:38:01;5.20;99.90
29237;DHT22;16266;50.866;4.398;2023-03-01T17:40:27;5.20;99.90
29237;DHT22;16266;50.866;4.398;2023-03-01T17:42:52;5.10;99.90
29237;DHT22;16266;50.866;4.398;2023-03-01T17:45:18;5.00;99.90
29237;DHT22;16266;50.866;4.398;2023-03-01T17:47:44;4.90;99.90
29237;DHT22;16266;50.866;4.398;2023-03-01T17:50:10;4.90;99.90
29237;DHT22;16266;50.866;4.398;2023-03-01T17:52:36;4.80;99.90
29237;DHT22;16266;50.866;4.398;2023-03-01T17:55:03;4.80;99.90
29237;DHT22;16266;50.866;4.398;2023-03-01T17:57:29;4.70;99.90
29237;DHT22;16266;50.866;4.398;2023-03-01T17:59:55;4.60;99.90